createdAt,value
2019-03-31T00:01:19.708Z,8.20
2019-03-31T00:03:49.777Z,8.30
2019-03-31T00:06:19.889Z,8.30
2019-03-31T00:08:49.958Z,8.30
2019-03-31T00:11:20.018Z,8.30
2019-03-31T00:13:50.075Z,8.30
2019-03-31T00:16:20.466Z,8.30
2019-03-31T00:18:50.542Z,8.20
2019-03-31T00:21:20.607Z,8.20
2019-03-31T00:23:50.675Z,8.10
2019-03-31T00:26:20.721Z,8.10
2019-03-31T00:28:50.814Z,8.00
2019-03-31T00:31:22.427Z,8.00
2019-03-31T00:33:52.969Z,7.90
2019-03-31T00:36:23.443Z,7.90
2019-03-31T00:38:53.536Z,7.80
2019-03-31T00:41:23.585Z,7.80
2019-03-31T00:43:54.060Z,7.70
2019-03-31T00:46:24.123Z,7.70
2019-03-31T00:48:54.194Z,7.70
2019-03-31T00:51:24.255Z,7.60
2019-03-31T00:53:54.483Z,7.60
2019-03-31T00:56:24.557Z,7.60
2019-03-31T00:58:54.747Z,7.60
2019-03-31T01:01:43.722Z,7.70
2019-03-31T01:04:15.354Z,7.70
2019-03-31T01:06:48.418Z,7.70
2019-03-31T01:09:28.823Z,7.60
2019-03-31T01:11:58.981Z,7.60
2019-03-31T01:14:29.870Z,7.50
2019-03-31T01:17:01.031Z,7.50
2019-03-31T01:19:31.700Z,7.50
2019-03-31T01:22:01.866Z,7.40
2019-03-31T01:24:31.983Z,7.30
2019-03-31T01:27:02.254Z,7.20
2019-03-31T01:29:32.282Z,7.20
2019-03-31T01:32:02.330Z,7.10
2019-03-31T01:34:32.383Z,7.00
2019-03-31T01:37:02.576Z,6.90
2019-03-31T01:39:33.616Z,7.00
2019-03-31T01:42:03.851Z,7.00
2019-03-31T01:44:34.357Z,7.00
2019-03-31T01:47:05.483Z,7.00
2019-03-31T01:49:35.959Z,7.10
2019-03-31T01:52:06.430Z,7.10
2019-03-31T01:54:36.518Z,7.00
2019-03-31T01:57:06.982Z,7.00
2019-03-31T01:59:37.410Z,7.00
2019-03-31T02:02:10.204Z,7.00
2019-03-31T02:04:40.241Z,7.00
2019-03-31T02:07:10.495Z,7.00
2019-03-31T02:09:40.533Z,6.90
2019-03-31T02:12:10.578Z,6.90
2019-03-31T02:14:40.997Z,6.90
2019-03-31T02:17:11.059Z,6.90
2019-03-31T02:19:41.109Z,6.90
2019-03-31T02:22:11.170Z,6.80
2019-03-31T02:24:41.223Z,6.80
2019-03-31T02:27:11.274Z,6.80
2019-03-31T02:29:41.306Z,6.80
2019-03-31T02:32:23.323Z,6.80
2019-03-31T02:34:43.515Z,6.80
2019-03-31T02:37:14.611Z,6.80
2019-03-31T02:39:44.688Z,6.80
2019-03-31T02:42:16.019Z,6.80
2019-03-31T02:44:46.093Z,6.80
2019-03-31T02:47:16.545Z,6.80
2019-03-31T02:49:46.607Z,6.70
2019-03-31T02:52:16.688Z,6.70
2019-03-31T02:54:47.240Z,6.60
2019-03-31T02:57:17.292Z,6.50
2019-03-31T02:59:48.197Z,6.50
2019-03-31T03:02:19.204Z,6.40
2019-03-31T03:04:49.657Z,6.40
2019-03-31T03:07:20.382Z,6.30
2019-03-31T03:09:51.769Z,6.30
2019-03-31T03:12:24.482Z,6.30
2019-03-31T03:14:57.168Z,6.30
2019-03-31T03:17:27.247Z,6.20
2019-03-31T03:19:57.311Z,6.20
2019-03-31T03:22:27.400Z,6.20
2019-03-31T03:24:57.458Z,6.10
2019-03-31T03:27:27.536Z,6.10
2019-03-31T03:29:57.610Z,6.10
2019-03-31T03:32:28.006Z,6.20
2019-03-31T03:34:58.466Z,6.20
2019-03-31T03:37:28.498Z,6.30
2019-03-31T03:39:58.577Z,6.30
2019-03-31T03:42:29.047Z,6.30
2019-03-31T03:44:59.135Z,6.40
2019-03-31T03:47:29.200Z,6.40
2019-03-31T03:49:59.321Z,6.40
2019-03-31T03:52:29.881Z,6.50
2019-03-31T03:54:59.984Z,6.50
2019-03-31T03:57:30.025Z,6.50
2019-03-31T04:00:00.661Z,6.50
2019-03-31T04:02:30.767Z,6.50
2019-03-31T04:05:01.082Z,6.40
2019-03-31T04:07:31.189Z,6.40
2019-03-31T04:10:01.256Z,6.40
2019-03-31T04:12:31.323Z,6.40
2019-03-31T04:15:01.412Z,6.40
2019-03-31T04:17:31.502Z,6.40
2019-03-31T04:20:01.624Z,6.40
2019-03-31T04:22:31.692Z,6.40
2019-03-31T04:25:01.769Z,6.40
2019-03-31T04:27:31.890Z,6.40
2019-03-31T04:30:01.964Z,6.40
2019-03-31T04:32:32.148Z,6.40
2019-03-31T04:35:02.189Z,6.30
2019-03-31T04:37:32.250Z,6.30
2019-03-31T04:40:02.293Z,6.20
2019-03-31T04:42:32.353Z,6.10
2019-03-31T04:45:02.402Z,6.20
2019-03-31T04:47:32.474Z,6.10
2019-03-31T04:50:02.542Z,6.20
2019-03-31T04:52:32.607Z,6.10
2019-03-31T04:55:02.687Z,6.20
2019-03-31T04:57:33.074Z,6.20
2019-03-31T05:00:03.161Z,6.20
2019-03-31T05:02:33.190Z,6.20
2019-03-31T05:05:03.282Z,6.20
2019-03-31T05:07:33.317Z,6.20
2019-03-31T05:10:03.440Z,6.20
2019-03-31T05:12:33.785Z,6.20
2019-03-31T05:15:03.998Z,6.20
2019-03-31T05:17:35.732Z,6.20
2019-03-31T05:20:06.326Z,6.30
2019-03-31T05:22:36.531Z,6.30
2019-03-31T05:25:06.734Z,6.30
2019-03-31T05:27:36.955Z,6.30
2019-03-31T05:30:07.695Z,6.30
2019-03-31T05:32:37.746Z,6.30
2019-03-31T05:35:07.908Z,6.30
2019-03-31T05:37:50.370Z,6.30
2019-03-31T05:40:10.536Z,6.30
2019-03-31T05:42:41.020Z,6.30
2019-03-31T05:45:11.072Z,6.30
2019-03-31T05:47:41.148Z,6.40
2019-03-31T05:50:11.524Z,6.30
2019-03-31T05:52:41.614Z,6.30
2019-03-31T05:55:11.678Z,6.40
2019-03-31T05:57:41.739Z,6.40
2019-03-31T06:00:12.171Z,6.50
2019-03-31T06:02:42.234Z,6.60
2019-03-31T06:05:12.318Z,6.60
2019-03-31T06:07:42.387Z,6.60
2019-03-31T06:10:12.774Z,6.70
2019-03-31T06:12:43.001Z,6.80
2019-03-31T06:15:13.086Z,6.70
2019-03-31T06:17:43.623Z,6.80
2019-03-31T06:20:13.712Z,6.80
2019-03-31T06:22:43.750Z,6.90
2019-03-31T06:25:13.854Z,6.80
2019-03-31T06:27:43.902Z,6.80
2019-03-31T06:30:14.088Z,6.80
2019-03-31T06:32:44.122Z,6.80
2019-03-31T06:35:14.600Z,6.90
2019-03-31T06:37:45.066Z,6.90
2019-03-31T06:40:15.142Z,7.00
2019-03-31T06:42:45.181Z,7.10
2019-03-31T06:45:15.382Z,7.20
2019-03-31T06:47:45.427Z,7.20
2019-03-31T06:50:15.891Z,7.40
2019-03-31T06:52:45.917Z,7.50
2019-03-31T06:55:16.015Z,7.60
2019-03-31T06:57:46.057Z,7.70
2019-03-31T07:00:16.627Z,7.60
2019-03-31T07:02:46.691Z,7.60
2019-03-31T07:05:16.749Z,7.60
2019-03-31T07:07:46.793Z,7.80
2019-03-31T07:10:17.263Z,7.90
2019-03-31T07:12:47.330Z,7.90
2019-03-31T07:15:18.038Z,7.90
2019-03-31T07:17:48.812Z,7.80
2019-03-31T07:20:19.358Z,7.70
2019-03-31T07:22:50.734Z,7.70
2019-03-31T07:25:20.736Z,7.80
2019-03-31T07:27:51.186Z,7.80
2019-03-31T07:30:21.369Z,7.70
2019-03-31T07:32:51.438Z,7.80
2019-03-31T07:35:21.555Z,7.80
2019-03-31T07:37:51.678Z,7.90
2019-03-31T07:40:22.676Z,8.10
2019-03-31T07:42:52.869Z,8.30
2019-03-31T07:45:22.966Z,8.50
2019-03-31T07:47:53.048Z,8.60
2019-03-31T07:50:23.592Z,8.70
2019-03-31T07:52:53.663Z,8.60
2019-03-31T07:55:24.140Z,8.70
2019-03-31T07:57:54.751Z,8.50
2019-03-31T08:00:26.349Z,8.50
2019-03-31T08:02:56.404Z,8.50
2019-03-31T08:05:33.041Z,8.50
2019-03-31T08:07:58.298Z,8.60
2019-03-31T08:10:28.339Z,8.60
2019-03-31T08:12:58.855Z,8.60
2019-03-31T08:15:29.289Z,8.50
2019-03-31T08:17:59.387Z,8.40
2019-03-31T08:20:29.462Z,8.50
2019-03-31T08:22:59.470Z,8.60
2019-03-31T08:25:29.540Z,8.70
2019-03-31T08:27:59.567Z,8.90
2019-03-31T08:30:29.637Z,9.10
2019-03-31T08:32:59.750Z,9.10
2019-03-31T08:35:29.785Z,9.20
2019-03-31T08:38:01.218Z,9.50
2019-03-31T08:40:31.291Z,9.40
2019-03-31T08:43:01.331Z,9.60
2019-03-31T08:45:31.423Z,9.50
2019-03-31T08:48:01.862Z,9.70
2019-03-31T08:50:34.713Z,9.50
2019-03-31T08:53:03.625Z,9.20
2019-03-31T08:55:33.742Z,9.10
2019-03-31T08:58:03.786Z,9.20
2019-03-31T09:00:41.639Z,9.20
2019-03-31T09:03:12.498Z,9.30
2019-03-31T09:05:42.679Z,9.40
2019-03-31T09:08:12.718Z,9.50
2019-03-31T09:10:42.752Z,9.60
2019-03-31T09:13:12.813Z,9.40
2019-03-31T09:15:42.851Z,9.60
2019-03-31T09:18:12.898Z,9.70
2019-03-31T09:20:42.931Z,9.70
2019-03-31T09:23:12.978Z,9.70
2019-03-31T09:25:43.023Z,9.90
2019-03-31T09:28:13.095Z,10.00
2019-03-31T09:30:43.152Z,10.00
2019-03-31T09:33:13.224Z,9.90
2019-03-31T09:35:43.352Z,9.90
2019-03-31T09:38:13.422Z,10.10
2019-03-31T09:40:43.935Z,10.00
2019-03-31T09:43:14.380Z,9.90
2019-03-31T09:45:44.663Z,9.90
2019-03-31T09:48:14.716Z,9.90
2019-03-31T09:50:44.799Z,10.00
2019-03-31T09:53:14.830Z,10.30
2019-03-31T09:55:44.906Z,10.40
2019-03-31T09:58:15.410Z,10.30
2019-03-31T10:00:50.077Z,10.10
2019-03-31T10:03:20.803Z,9.90
2019-03-31T10:05:50.840Z,9.80
2019-03-31T10:08:22.254Z,9.80
2019-03-31T10:10:52.518Z,10.00
2019-03-31T10:13:22.991Z,9.80
2019-03-31T10:15:53.668Z,9.80
2019-03-31T10:18:25.745Z,10.10
2019-03-31T10:20:55.797Z,10.10
2019-03-31T10:23:26.387Z,10.10
2019-03-31T10:25:56.454Z,10.40
2019-03-31T10:28:26.503Z,10.60
2019-03-31T10:30:56.900Z,10.60
2019-03-31T10:33:26.975Z,10.40
2019-03-31T10:35:57.025Z,10.60
2019-03-31T10:38:27.085Z,10.30
2019-03-31T10:40:57.150Z,10.40
2019-03-31T10:43:27.218Z,10.60
2019-03-31T10:45:57.275Z,10.50
2019-03-31T10:48:27.356Z,10.40
2019-03-31T10:50:57.534Z,10.50
2019-03-31T10:53:27.600Z,10.40
2019-03-31T10:55:58.035Z,10.70
2019-03-31T10:58:28.450Z,10.90
2019-03-31T11:00:58.495Z,11.40
2019-03-31T11:03:28.560Z,11.50
2019-03-31T11:05:58.606Z,11.40
2019-03-31T11:08:28.666Z,11.20
2019-03-31T11:10:58.715Z,11.10
2019-03-31T11:13:29.293Z,11.10
2019-03-31T11:15:59.545Z,11.20
2019-03-31T11:18:30.051Z,11.20
2019-03-31T11:21:03.624Z,11.30
2019-03-31T11:23:33.722Z,11.30
2019-03-31T11:26:03.775Z,11.30
2019-03-31T11:28:33.823Z,11.70
2019-03-31T11:31:03.903Z,11.80
2019-03-31T11:33:33.932Z,11.80
2019-03-31T11:36:04.878Z,11.70
2019-03-31T11:38:35.071Z,11.70
2019-03-31T11:41:05.196Z,11.90
2019-03-31T11:43:35.230Z,12.10
2019-03-31T11:46:05.500Z,12.20
2019-03-31T11:48:36.014Z,12.20
2019-03-31T11:51:06.078Z,12.40
2019-03-31T11:53:36.102Z,12.10
2019-03-31T11:56:06.159Z,11.80
2019-03-31T11:58:36.228Z,12.10
2019-03-31T12:01:06.714Z,12.60
2019-03-31T12:03:37.156Z,12.70
2019-03-31T12:06:07.190Z,12.70
2019-03-31T12:08:37.416Z,12.90
2019-03-31T12:11:07.470Z,12.60
2019-03-31T12:13:37.531Z,12.60
2019-03-31T12:16:07.875Z,12.90
2019-03-31T12:18:37.941Z,12.90
2019-03-31T12:21:08.526Z,12.80
2019-03-31T12:23:39.428Z,12.30
2019-03-31T12:26:09.478Z,12.30
2019-03-31T12:28:39.510Z,12.30
2019-03-31T12:31:10.091Z,12.20
2019-03-31T12:33:40.161Z,11.90
2019-03-31T12:36:10.225Z,11.70
2019-03-31T12:38:40.663Z,11.70
2019-03-31T12:41:10.740Z,11.90
2019-03-31T12:43:40.928Z,12.20
2019-03-31T12:46:11.145Z,12.20
2019-03-31T12:48:41.728Z,12.10
2019-03-31T12:51:11.786Z,12.00
2019-03-31T12:53:42.024Z,12.00
2019-03-31T12:56:12.131Z,12.20
2019-03-31T12:58:42.279Z,12.20
2019-03-31T13:01:12.345Z,12.20
2019-03-31T13:03:42.790Z,12.20
2019-03-31T13:06:12.833Z,12.30
2019-03-31T13:08:43.024Z,12.30
2019-03-31T13:11:13.055Z,12.30
2019-03-31T13:13:43.161Z,12.30
2019-03-31T13:16:13.254Z,12.00
2019-03-31T13:18:43.295Z,11.80
2019-03-31T13:21:13.346Z,11.70
2019-03-31T13:23:43.460Z,11.90
2019-03-31T13:26:13.696Z,12.00
2019-03-31T13:28:44.207Z,12.00
2019-03-31T13:31:14.271Z,12.30
2019-03-31T13:33:45.186Z,12.40
2019-03-31T13:36:15.333Z,12.50
2019-03-31T13:38:45.416Z,12.10
2019-03-31T13:41:15.470Z,12.10
2019-03-31T13:43:45.507Z,12.30
2019-03-31T13:46:15.571Z,12.50
2019-03-31T13:48:45.602Z,12.60
2019-03-31T13:51:15.663Z,12.70
2019-03-31T13:53:45.707Z,12.80
2019-03-31T13:56:16.545Z,12.70
2019-03-31T13:58:52.398Z,12.30
2019-03-31T14:01:18.614Z,12.10
2019-03-31T14:03:48.904Z,12.10
2019-03-31T14:06:19.402Z,12.20
2019-03-31T14:08:49.495Z,12.20
2019-03-31T14:11:21.623Z,12.40
2019-03-31T14:13:51.988Z,12.60
2019-03-31T14:16:22.366Z,12.60
2019-03-31T14:18:52.871Z,12.50
2019-03-31T14:21:22.886Z,12.40
2019-03-31T14:23:52.939Z,12.40
2019-03-31T14:26:22.974Z,12.30
2019-03-31T14:28:53.409Z,12.20
2019-03-31T14:31:23.435Z,12.20
2019-03-31T14:33:53.501Z,12.30
2019-03-31T14:36:25.202Z,12.50
2019-03-31T14:38:55.265Z,12.40
2019-03-31T14:41:25.907Z,12.30
2019-03-31T14:43:56.567Z,12.30
2019-03-31T14:46:26.610Z,12.50
2019-03-31T14:48:56.652Z,12.50
2019-03-31T14:51:27.966Z,12.60
2019-03-31T14:53:58.032Z,12.60
2019-03-31T14:56:28.113Z,12.60
2019-03-31T14:58:58.169Z,12.60
2019-03-31T15:01:28.247Z,12.60
2019-03-31T15:03:58.283Z,12.50
2019-03-31T15:06:28.351Z,12.50
2019-03-31T15:08:58.408Z,12.60
2019-03-31T15:11:28.492Z,12.60
2019-03-31T15:13:58.663Z,12.20
2019-03-31T15:16:28.719Z,12.10
2019-03-31T15:18:59.139Z,11.60
2019-03-31T15:21:29.355Z,11.30
2019-03-31T15:23:59.878Z,11.40
2019-03-31T15:26:29.948Z,11.60
2019-03-31T15:28:59.993Z,11.80
2019-03-31T15:31:30.059Z,11.90
2019-03-31T15:34:00.843Z,11.90
2019-03-31T15:36:30.916Z,11.80
2019-03-31T15:39:08.780Z,12.00
2019-03-31T15:41:33.884Z,11.90
2019-03-31T15:44:04.111Z,11.90
2019-03-31T15:46:34.571Z,11.90
2019-03-31T15:49:04.775Z,11.70
2019-03-31T15:51:34.834Z,11.60
2019-03-31T15:54:04.872Z,11.50
2019-03-31T15:56:34.963Z,11.40
2019-03-31T15:59:05.000Z,11.40
2019-03-31T16:01:35.084Z,11.10
2019-03-31T16:04:05.114Z,10.80
2019-03-31T16:06:35.149Z,10.80
2019-03-31T16:09:05.984Z,10.80
2019-03-31T16:11:35.520Z,10.90
2019-03-31T16:14:05.040Z,10.90
2019-03-31T16:16:34.544Z,11.10
2019-03-31T16:19:04.544Z,11.20
2019-03-31T16:21:34.039Z,11.30
2019-03-31T16:24:04.090Z,11.30
2019-03-31T16:26:33.904Z,11.30
2019-03-31T16:29:03.986Z,11.20
2019-03-31T16:31:33.590Z,11.20
2019-03-31T16:34:03.090Z,11.10
2019-03-31T16:36:32.610Z,11.00
2019-03-31T16:39:02.981Z,11.00
2019-03-31T16:41:33.610Z,10.90
2019-03-31T16:44:03.214Z,10.80
2019-03-31T16:46:33.364Z,10.70
2019-03-31T16:49:03.020Z,10.60
2019-03-31T16:51:33.350Z,10.60
2019-03-31T16:54:03.491Z,10.50
2019-03-31T16:56:33.034Z,10.40
2019-03-31T16:59:02.587Z,10.30
2019-03-31T17:01:32.084Z,10.20
2019-03-31T17:04:01.894Z,10.20
2019-03-31T17:06:31.469Z,10.10
2019-03-31T17:09:01.259Z,9.90
2019-03-31T17:11:31.551Z,9.90
2019-03-31T17:14:01.163Z,9.70
2019-03-31T17:16:30.678Z,9.70
2019-03-31T17:19:00.598Z,9.60
2019-03-31T17:21:30.097Z,9.50
2019-03-31T17:24:00.356Z,9.30
2019-03-31T17:26:30.203Z,9.20
2019-03-31T17:29:00.167Z,9.10
2019-03-31T17:31:30.297Z,9.00
2019-03-31T17:33:59.787Z,8.90
2019-03-31T17:36:29.326Z,8.80
2019-03-31T17:38:59.270Z,8.70
2019-03-31T17:41:28.911Z,8.60
2019-03-31T17:43:58.878Z,8.50
2019-03-31T17:46:28.379Z,8.40
2019-03-31T17:48:58.351Z,8.30
2019-03-31T17:51:28.362Z,8.20
2019-03-31T17:53:57.846Z,8.20
2019-03-31T17:56:27.752Z,8.10
2019-03-31T17:58:57.408Z,8.00
2019-03-31T18:01:27.265Z,7.90
2019-03-31T18:03:56.835Z,7.80
2019-03-31T18:06:26.350Z,7.70
2019-03-31T18:08:56.254Z,7.60
2019-03-31T18:11:25.742Z,7.40
2019-03-31T18:13:55.707Z,7.30
2019-03-31T18:16:25.934Z,7.20
2019-03-31T18:18:55.620Z,7.10
2019-03-31T18:21:27.239Z,7.00
2019-03-31T18:23:57.016Z,7.00
2019-03-31T18:26:26.548Z,7.00
2019-03-31T18:28:56.039Z,6.80
2019-03-31T18:31:25.553Z,6.70
2019-03-31T18:33:55.058Z,6.60
2019-03-31T18:36:35.829Z,6.60
2019-03-31T18:38:56.475Z,6.50
2019-03-31T18:41:26.003Z,6.40
2019-03-31T18:43:55.502Z,6.30
2019-03-31T18:46:25.026Z,6.30
2019-03-31T18:48:56.149Z,6.30
2019-03-31T18:51:25.777Z,6.20
2019-03-31T18:54:12.062Z,6.20
2019-03-31T18:56:53.087Z,6.20
2019-03-31T18:59:44.535Z,6.20
2019-03-31T19:02:32.954Z,6.10
2019-03-31T19:05:24.759Z,6.00
2019-03-31T19:08:10.870Z,5.90
2019-03-31T19:10:58.148Z,5.80
2019-03-31T19:13:54.501Z,5.80
2019-03-31T19:16:21.799Z,5.70
2019-03-31T19:19:05.263Z,5.70
2019-03-31T19:21:52.327Z,5.60
2019-03-31T19:24:40.170Z,5.60
2019-03-31T19:27:18.132Z,5.50
2019-03-31T19:30:05.451Z,5.40
2019-03-31T19:33:00.319Z,5.40
2019-03-31T19:35:51.778Z,5.30
2019-03-31T19:38:43.249Z,5.30
2019-03-31T19:41:22.067Z,5.30
2019-03-31T19:44:22.815Z,5.20
2019-03-31T19:47:17.639Z,5.20
2019-03-31T19:49:58.687Z,5.10
2019-03-31T19:53:02.827Z,5.10
2019-03-31T19:56:07.377Z,5.00
2019-03-31T19:58:43.795Z,5.00
2019-03-31T20:01:20.477Z,4.90
2019-03-31T20:04:07.499Z,4.90
2019-03-31T20:06:55.940Z,4.80
2019-03-31T20:09:47.402Z,4.70
2019-03-31T20:12:42.106Z,4.70
2019-03-31T20:15:36.637Z,4.60
2019-03-31T20:18:25.094Z,4.60
2019-03-31T20:21:03.872Z,4.50
2019-03-31T20:23:54.577Z,4.50
2019-03-31T20:26:42.225Z,4.40
2019-03-31T20:29:18.690Z,4.30
2019-03-31T20:32:10.675Z,4.30
2019-03-31T20:34:50.885Z,4.20
2019-03-31T20:37:48.406Z,4.20
2019-03-31T20:40:42.595Z,4.10
2019-03-31T20:43:19.836Z,4.10
2019-03-31T20:45:49.322Z,4.00
2019-03-31T20:48:18.835Z,4.00
2019-03-31T20:50:48.324Z,4.00
2019-03-31T20:53:17.916Z,3.90
2019-03-31T20:55:47.322Z,3.80
2019-03-31T20:58:16.854Z,3.80
2019-03-31T21:00:46.343Z,3.70
2019-03-31T21:03:16.235Z,3.70
2019-03-31T21:05:45.756Z,3.70
2019-03-31T21:08:15.221Z,3.60
2019-03-31T21:10:44.724Z,3.50
2019-03-31T21:13:14.235Z,3.40
2019-03-31T21:15:43.706Z,3.40
2019-03-31T21:18:13.210Z,3.40
2019-03-31T21:20:42.739Z,3.40
2019-03-31T21:23:12.224Z,3.30
2019-03-31T21:25:41.715Z,3.20
2019-03-31T21:28:11.563Z,3.20
2019-03-31T21:30:41.075Z,3.10
2019-03-31T21:33:10.586Z,3.10
2019-03-31T21:35:40.468Z,3.10
2019-03-31T21:38:09.954Z,3.00
2019-03-31T21:40:39.456Z,3.00
2019-03-31T21:43:08.975Z,3.00
2019-03-31T21:45:38.455Z,3.00
2019-03-31T21:48:07.920Z,2.90
2019-03-31T21:50:37.426Z,2.90
2019-03-31T21:53:06.898Z,2.90
2019-03-31T21:55:36.426Z,2.90
2019-03-31T21:58:05.910Z,2.80
2019-03-31T22:00:52.985Z,2.80
2019-03-31T22:03:22.463Z,2.80
2019-03-31T22:05:51.974Z,2.70
2019-03-31T22:08:21.447Z,2.70
2019-03-31T22:10:51.314Z,2.60
2019-03-31T22:13:20.815Z,2.60
2019-03-31T22:15:51.240Z,2.50
2019-03-31T22:18:20.743Z,2.50
2019-03-31T22:20:50.326Z,2.50
2019-03-31T22:23:19.831Z,2.50
2019-03-31T22:25:49.346Z,2.50
2019-03-31T22:28:18.831Z,2.50
2019-03-31T22:30:48.332Z,2.40
2019-03-31T22:33:18.249Z,2.40
2019-03-31T22:36:05.861Z,2.30
2019-03-31T22:38:35.367Z,2.30
2019-03-31T22:41:05.187Z,2.20
2019-03-31T22:43:35.047Z,2.20
2019-03-31T22:46:04.947Z,2.20
2019-03-31T22:48:34.926Z,2.30
2019-03-31T22:51:04.411Z,2.20
2019-03-31T22:53:33.886Z,2.10
2019-03-31T22:56:03.406Z,2.10
2019-03-31T22:58:32.905Z,2.00
2019-03-31T23:01:02.395Z,2.00
2019-03-31T23:03:32.276Z,1.90
2019-03-31T23:06:01.770Z,1.90
2019-03-31T23:08:31.306Z,1.80
2019-03-31T23:11:01.319Z,1.80
2019-03-31T23:13:30.797Z,1.80
2019-03-31T23:16:00.310Z,1.80
2019-03-31T23:18:29.806Z,1.80
2019-03-31T23:20:59.278Z,1.80
2019-03-31T23:23:29.159Z,1.70
2019-03-31T23:25:58.655Z,1.70
2019-03-31T23:28:28.151Z,1.70
2019-03-31T23:30:57.650Z,1.60
2019-03-31T23:33:27.479Z,1.70
2019-03-31T23:35:56.954Z,1.70
2019-03-31T23:38:26.472Z,1.70
2019-03-31T23:40:55.943Z,1.70
2019-03-31T23:43:25.459Z,1.70
2019-03-31T23:45:54.940Z,1.70
2019-03-31T23:48:24.824Z,1.70
2019-03-31T23:50:54.318Z,1.60
2019-03-31T23:53:23.879Z,1.60
2019-03-31T23:55:53.371Z,1.60
2019-03-31T23:58:22.887Z,1.60
